sensor_id;sensor_type;location;lat;lon;timestamp;P1;durP1;ratioP1;P2;durP2;ratioP2
73599;SDS011;61877;48.246;9.220;2022-10-16T00:01:15;9.70;;;2.70;;
73599;SDS011;61877;48.246;9.220;2022-10-16T00:03:42;8.73;;;3.03;;
73599;SDS011;61877;48.246;9.220;2022-10-16T00:06:09;7.93;;;2.40;;
73599;SDS011;61877;48.246;9.220;2022-10-16T00:08:37;10.52;;;2.60;;
73599;SDS011;61877;48.246;9.220;2022-10-16T00:11:04;6.18;;;2.05;;
73599;SDS011;61877;48.246;9.220;2022-10-16T00:13:32;6.38;;;2.03;;
73599;SDS011;61877;48.246;9.220;2022-10-16T00:15:59;7.07;;;2.60;;
73599;SDS011;61877;48.246;9.220;2022-10-16T00:18:26;7.53;;;2.30;;
73599;SDS011;61877;48.246;9.220;2022-10-16T00:20:52;7.70;;;2.75;;
73599;SDS011;61877;48.246;9.220;2022-10-16T00:23:17;7.88;;;2.83;;
73599;SDS011;61877;48.246;9.220;2022-10-16T00:25:43;6.80;;;2.10;;
73599;SDS011;61877;48.246;9.220;2022-10-16T00:28:09;7.85;;;2.30;;
73599;SDS011;61877;48.246;9.220;2022-10-16T00:30:38;7.13;;;2.10;;
73599;SDS011;61877;48.246;9.220;2022-10-16T00:33:04;7.85;;;2.10;;
73599;SDS011;61877;48.246;9.220;2022-10-16T00:35:30;6.00;;;1.90;;
73599;SDS011;61877;48.246;9.220;2022-10-16T00:37:57;11.15;;;2.08;;
73599;SDS011;61877;48.246;9.220;2022-10-16T00:40:23;6.80;;;1.80;;
73599;SDS011;61877;48.246;9.220;2022-10-16T00:42:48;5.63;;;1.90;;
73599;SDS011;61877;48.246;9.220;2022-10-16T00:45:13;6.53;;;2.20;;
73599;SDS011;61877;48.246;9.220;2022-10-16T00:47:43;10.10;;;1.77;;
73599;SDS011;61877;48.246;9.220;2022-10-16T00:50:13;8.85;;;2.38;;
73599;SDS011;61877;48.246;9.220;2022-10-16T00:52:44;7.13;;;2.10;;
73599;SDS011;61877;48.246;9.220;2022-10-16T00:55:11;7.87;;;2.40;;
73599;SDS011;61877;48.246;9.220;2022-10-16T00:57:37;6.25;;;2.10;;
73599;SDS011;61877;48.246;9.220;2022-10-16T01:00:05;6.75;;;2.20;;
73599;SDS011;61877;48.246;9.220;2022-10-16T01:02:33;7.57;;;2.20;;
73599;SDS011;61877;48.246;9.220;2022-10-16T01:05:00;10.00;;;2.17;;
73599;SDS011;61877;48.246;9.220;2022-10-16T01:07:30;7.32;;;2.33;;
73599;SDS011;61877;48.246;9.220;2022-10-16T01:10:06;10.20;;;2.60;;
73599;SDS011;61877;48.246;9.220;2022-10-16T01:12:42;10.10;;;2.20;;
73599;SDS011;61877;48.246;9.220;2022-10-16T01:15:16;7.30;;;2.30;;
73599;SDS011;61877;48.246;9.220;2022-10-16T01:17:50;7.23;;;2.20;;
73599;SDS011;61877;48.246;9.220;2022-10-16T01:20:23;6.53;;;2.00;;
73599;SDS011;61877;48.246;9.220;2022-10-16T01:23:03;5.80;;;1.92;;
73599;SDS011;61877;48.246;9.220;2022-10-16T01:25:37;7.90;;;2.17;;
73599;SDS011;61877;48.246;9.220;2022-10-16T01:28:15;9.10;;;2.22;;
73599;SDS011;61877;48.246;9.220;2022-10-16T01:30:44;7.80;;;2.20;;
73599;SDS011;61877;48.246;9.220;2022-10-16T01:33:13;6.82;;;2.10;;
73599;SDS011;61877;48.246;9.220;2022-10-16T01:35:43;6.60;;;2.25;;
73599;SDS011;61877;48.246;9.220;2022-10-16T01:38:12;7.35;;;2.20;;
73599;SDS011;61877;48.246;9.220;2022-10-16T01:40:41;6.88;;;1.80;;
73599;SDS011;61877;48.246;9.220;2022-10-16T01:43:12;7.07;;;2.30;;
73599;SDS011;61877;48.246;9.220;2022-10-16T01:45:42;7.00;;;2.13;;
73599;SDS011;61877;48.246;9.220;2022-10-16T01:48:10;6.35;;;2.20;;
73599;SDS011;61877;48.246;9.220;2022-10-16T01:50:41;6.00;;;1.98;;
73599;SDS011;61877;48.246;9.220;2022-10-16T01:53:09;5.65;;;2.10;;
73599;SDS011;61877;48.246;9.220;2022-10-16T01:55:38;5.43;;;1.67;;
73599;SDS011;61877;48.246;9.220;2022-10-16T01:58:07;7.28;;;2.45;;
73599;SDS011;61877;48.246;9.220;2022-10-16T02:00:33;6.63;;;2.20;;
73599;SDS011;61877;48.246;9.220;2022-10-16T02:03:04;6.32;;;1.98;;
73599;SDS011;61877;48.246;9.220;2022-10-16T02:05:32;7.20;;;2.90;;
73599;SDS011;61877;48.246;9.220;2022-10-16T02:08:02;6.17;;;2.07;;
73599;SDS011;61877;48.246;9.220;2022-10-16T02:10:28;8.57;;;2.40;;
73599;SDS011;61877;48.246;9.220;2022-10-16T02:12:55;7.57;;;2.70;;
73599;SDS011;61877;48.246;9.220;2022-10-16T02:15:23;8.37;;;2.23;;
73599;SDS011;61877;48.246;9.220;2022-10-16T02:17:49;7.05;;;2.25;;
73599;SDS011;61877;48.246;9.220;2022-10-16T02:20:16;7.80;;;2.40;;
73599;SDS011;61877;48.246;9.220;2022-10-16T02:22:43;6.20;;;2.10;;
73599;SDS011;61877;48.246;9.220;2022-10-16T02:25:13;7.38;;;2.25;;
73599;SDS011;61877;48.246;9.220;2022-10-16T02:27:51;6.13;;;1.83;;
73599;SDS011;61877;48.246;9.220;2022-10-16T02:30:21;6.18;;;1.90;;
73599;SDS011;61877;48.246;9.220;2022-10-16T02:32:52;7.05;;;2.17;;
73599;SDS011;61877;48.246;9.220;2022-10-16T02:35:24;9.13;;;2.38;;
73599;SDS011;61877;48.246;9.220;2022-10-16T02:37:52;7.32;;;2.63;;
73599;SDS011;61877;48.246;9.220;2022-10-16T02:40:19;7.40;;;2.47;;
73599;SDS011;61877;48.246;9.220;2022-10-16T02:42:49;9.10;;;2.63;;
73599;SDS011;61877;48.246;9.220;2022-10-16T02:45:15;8.30;;;2.47;;
73599;SDS011;61877;48.246;9.220;2022-10-16T02:47:41;6.35;;;2.20;;
73599;SDS011;61877;48.246;9.220;2022-10-16T02:50:10;7.13;;;2.00;;
73599;SDS011;61877;48.246;9.220;2022-10-16T02:52:36;6.07;;;2.03;;
73599;SDS011;61877;48.246;9.220;2022-10-16T02:55:05;6.20;;;2.20;;
73599;SDS011;61877;48.246;9.220;2022-10-16T02:57:31;6.47;;;2.10;;
73599;SDS011;61877;48.246;9.220;2022-10-16T02:59:57;6.45;;;2.20;;
73599;SDS011;61877;48.246;9.220;2022-10-16T03:02:22;6.63;;;2.20;;
73599;SDS011;61877;48.246;9.220;2022-10-16T03:04:48;11.60;;;2.55;;
73599;SDS011;61877;48.246;9.220;2022-10-16T03:07:13;6.30;;;2.00;;
73599;SDS011;61877;48.246;9.220;2022-10-16T03:09:40;8.90;;;2.10;;
73599;SDS011;61877;48.246;9.220;2022-10-16T03:12:06;6.50;;;2.17;;
73599;SDS011;61877;48.246;9.220;2022-10-16T03:14:32;8.20;;;2.17;;
73599;SDS011;61877;48.246;9.220;2022-10-16T03:16:57;7.27;;;2.20;;
73599;SDS011;61877;48.246;9.220;2022-10-16T03:19:24;7.97;;;1.87;;
73599;SDS011;61877;48.246;9.220;2022-10-16T03:21:49;8.57;;;2.08;;
73599;SDS011;61877;48.246;9.220;2022-10-16T03:24:15;6.60;;;2.20;;
73599;SDS011;61877;48.246;9.220;2022-10-16T03:26:41;6.78;;;2.30;;
73599;SDS011;61877;48.246;9.220;2022-10-16T03:29:07;7.03;;;2.30;;
73599;SDS011;61877;48.246;9.220;2022-10-16T03:31:35;6.70;;;2.20;;
73599;SDS011;61877;48.246;9.220;2022-10-16T03:34:00;8.82;;;2.10;;
73599;SDS011;61877;48.246;9.220;2022-10-16T03:36:28;6.67;;;1.80;;
73599;SDS011;61877;48.246;9.220;2022-10-16T03:38:54;9.10;;;2.45;;
73599;SDS011;61877;48.246;9.220;2022-10-16T03:41:19;6.23;;;1.90;;
73599;SDS011;61877;48.246;9.220;2022-10-16T03:43:46;6.47;;;2.10;;
73599;SDS011;61877;48.246;9.220;2022-10-16T03:46:12;10.50;;;2.50;;
73599;SDS011;61877;48.246;9.220;2022-10-16T03:48:37;7.43;;;2.40;;
73599;SDS011;61877;48.246;9.220;2022-10-16T03:51:03;7.18;;;2.63;;
73599;SDS011;61877;48.246;9.220;2022-10-16T03:53:28;5.90;;;2.20;;
73599;SDS011;61877;48.246;9.220;2022-10-16T03:55:54;5.97;;;2.20;;
73599;SDS011;61877;48.246;9.220;2022-10-16T03:58:19;6.20;;;2.20;;
73599;SDS011;61877;48.246;9.220;2022-10-16T04:00:46;6.90;;;2.20;;
73599;SDS011;61877;48.246;9.220;2022-10-16T04:03:11;7.95;;;2.45;;
73599;SDS011;61877;48.246;9.220;2022-10-16T04:05:37;7.23;;;2.20;;
73599;SDS011;61877;48.246;9.220;2022-10-16T04:08:02;7.77;;;2.37;;
73599;SDS011;61877;48.246;9.220;2022-10-16T04:10:28;6.65;;;2.25;;
73599;SDS011;61877;48.246;9.220;2022-10-16T04:12:54;8.33;;;2.40;;
73599;SDS011;61877;48.246;9.220;2022-10-16T04:15:19;7.55;;;2.47;;
73599;SDS011;61877;48.246;9.220;2022-10-16T04:17:46;6.53;;;2.10;;
73599;SDS011;61877;48.246;9.220;2022-10-16T04:20:12;6.43;;;2.38;;
73599;SDS011;61877;48.246;9.220;2022-10-16T04:22:37;7.40;;;2.20;;
73599;SDS011;61877;48.246;9.220;2022-10-16T04:25:03;6.23;;;2.30;;
73599;SDS011;61877;48.246;9.220;2022-10-16T04:27:29;7.80;;;2.33;;
73599;SDS011;61877;48.246;9.220;2022-10-16T04:29:54;7.40;;;2.37;;
73599;SDS011;61877;48.246;9.220;2022-10-16T04:32:20;6.13;;;2.25;;
73599;SDS011;61877;48.246;9.220;2022-10-16T04:34:47;9.00;;;2.60;;
73599;SDS011;61877;48.246;9.220;2022-10-16T04:37:12;5.50;;;1.90;;
73599;SDS011;61877;48.246;9.220;2022-10-16T04:39:38;6.53;;;2.50;;
73599;SDS011;61877;48.246;9.220;2022-10-16T04:42:03;7.67;;;2.33;;
73599;SDS011;61877;48.246;9.220;2022-10-16T04:44:28;7.22;;;2.20;;
73599;SDS011;61877;48.246;9.220;2022-10-16T04:46:54;9.07;;;2.40;;
73599;SDS011;61877;48.246;9.220;2022-10-16T04:49:19;7.60;;;2.60;;
73599;SDS011;61877;48.246;9.220;2022-10-16T04:51:46;7.07;;;2.50;;
73599;SDS011;61877;48.246;9.220;2022-10-16T04:54:12;9.30;;;2.67;;
73599;SDS011;61877;48.246;9.220;2022-10-16T04:56:37;6.65;;;2.53;;
73599;SDS011;61877;48.246;9.220;2022-10-16T04:59:03;7.60;;;2.60;;
73599;SDS011;61877;48.246;9.220;2022-10-16T05:01:28;6.70;;;2.53;;
73599;SDS011;61877;48.246;9.220;2022-10-16T05:03:54;8.32;;;2.60;;
73599;SDS011;61877;48.246;9.220;2022-10-16T05:06:19;8.23;;;2.50;;
73599;SDS011;61877;48.246;9.220;2022-10-16T05:08:46;7.77;;;2.67;;
73599;SDS011;61877;48.246;9.220;2022-10-16T05:11:14;7.65;;;2.75;;
73599;SDS011;61877;48.246;9.220;2022-10-16T05:13:40;7.18;;;2.45;;
73599;SDS011;61877;48.246;9.220;2022-10-16T05:16:05;10.13;;;2.30;;
73599;SDS011;61877;48.246;9.220;2022-10-16T05:18:31;7.60;;;2.40;;
73599;SDS011;61877;48.246;9.220;2022-10-16T05:20:56;7.13;;;2.17;;
73599;SDS011;61877;48.246;9.220;2022-10-16T05:23:22;7.70;;;2.30;;
73599;SDS011;61877;48.246;9.220;2022-10-16T05:25:56;6.60;;;2.47;;
73599;SDS011;61877;48.246;9.220;2022-10-16T05:28:22;6.13;;;2.30;;
73599;SDS011;61877;48.246;9.220;2022-10-16T05:30:47;6.22;;;2.30;;
73599;SDS011;61877;48.246;9.220;2022-10-16T05:33:13;6.20;;;2.50;;
73599;SDS011;61877;48.246;9.220;2022-10-16T05:35:38;8.37;;;2.37;;
73599;SDS011;61877;48.246;9.220;2022-10-16T05:38:04;8.95;;;2.00;;
73599;SDS011;61877;48.246;9.220;2022-10-16T05:40:29;8.40;;;2.27;;
73599;SDS011;61877;48.246;9.220;2022-10-16T05:42:56;6.50;;;2.30;;
73599;SDS011;61877;48.246;9.220;2022-10-16T05:45:21;7.78;;;2.58;;
73599;SDS011;61877;48.246;9.220;2022-10-16T05:47:47;7.40;;;2.77;;
73599;SDS011;61877;48.246;9.220;2022-10-16T05:50:12;6.73;;;2.50;;
73599;SDS011;61877;48.246;9.220;2022-10-16T05:52:38;5.90;;;2.50;;
73599;SDS011;61877;48.246;9.220;2022-10-16T05:55:04;6.70;;;2.35;;
73599;SDS011;61877;48.246;9.220;2022-10-16T05:57:30;6.30;;;2.47;;
73599;SDS011;61877;48.246;9.220;2022-10-16T05:59:57;6.82;;;2.38;;
73599;SDS011;61877;48.246;9.220;2022-10-16T06:02:23;9.40;;;2.45;;
73599;SDS011;61877;48.246;9.220;2022-10-16T06:04:48;8.27;;;2.30;;
73599;SDS011;61877;48.246;9.220;2022-10-16T06:07:14;6.43;;;2.47;;
73599;SDS011;61877;48.246;9.220;2022-10-16T06:09:39;9.87;;;2.50;;
73599;SDS011;61877;48.246;9.220;2022-10-16T06:12:05;6.95;;;2.53;;
73599;SDS011;61877;48.246;9.220;2022-10-16T06:14:30;7.23;;;2.30;;
73599;SDS011;61877;48.246;9.220;2022-10-16T06:16:57;7.13;;;2.53;;
73599;SDS011;61877;48.246;9.220;2022-10-16T06:19:22;8.13;;;2.50;;
73599;SDS011;61877;48.246;9.220;2022-10-16T06:21:48;6.70;;;2.20;;
73599;SDS011;61877;48.246;9.220;2022-10-16T06:24:13;7.93;;;2.60;;
73599;SDS011;61877;48.246;9.220;2022-10-16T06:26:39;7.10;;;2.40;;
73599;SDS011;61877;48.246;9.220;2022-10-16T06:29:04;9.83;;;3.97;;
73599;SDS011;61877;48.246;9.220;2022-10-16T06:31:30;8.37;;;3.90;;
73599;SDS011;61877;48.246;9.220;2022-10-16T06:33:57;12.30;;;4.60;;
73599;SDS011;61877;48.246;9.220;2022-10-16T06:36:23;10.60;;;3.80;;
73599;SDS011;61877;48.246;9.220;2022-10-16T06:38:49;8.68;;;3.70;;
73599;SDS011;61877;48.246;9.220;2022-10-16T06:41:16;7.70;;;3.50;;
73599;SDS011;61877;48.246;9.220;2022-10-16T06:43:42;8.90;;;3.60;;
73599;SDS011;61877;48.246;9.220;2022-10-16T06:46:09;8.40;;;3.80;;
73599;SDS011;61877;48.246;9.220;2022-10-16T06:48:36;8.17;;;2.70;;
73599;SDS011;61877;48.246;9.220;2022-10-16T06:51:04;7.25;;;2.92;;
73599;SDS011;61877;48.246;9.220;2022-10-16T06:53:33;6.68;;;3.10;;
73599;SDS011;61877;48.246;9.220;2022-10-16T06:56:06;8.15;;;3.10;;
73599;SDS011;61877;48.246;9.220;2022-10-16T06:58:32;8.18;;;3.00;;
73599;SDS011;61877;48.246;9.220;2022-10-16T07:00:57;10.07;;;4.40;;
73599;SDS011;61877;48.246;9.220;2022-10-16T07:03:23;8.53;;;4.00;;
73599;SDS011;61877;48.246;9.220;2022-10-16T07:05:48;10.97;;;5.13;;
73599;SDS011;61877;48.246;9.220;2022-10-16T07:08:15;10.80;;;5.40;;
73599;SDS011;61877;48.246;9.220;2022-10-16T07:10:40;10.43;;;5.70;;
73599;SDS011;61877;48.246;9.220;2022-10-16T07:13:06;11.73;;;5.78;;
73599;SDS011;61877;48.246;9.220;2022-10-16T07:15:31;12.00;;;5.80;;
73599;SDS011;61877;48.246;9.220;2022-10-16T07:30:14;9.63;;;4.87;;
73599;SDS011;61877;48.246;9.220;2022-10-16T07:32:41;10.85;;;4.60;;
73599;SDS011;61877;48.246;9.220;2022-10-16T07:35:17;10.67;;;4.40;;
73599;SDS011;61877;48.246;9.220;2022-10-16T08:02:45;8.47;;;4.00;;
73599;SDS011;61877;48.246;9.220;2022-10-16T08:05:14;8.82;;;4.00;;
73599;SDS011;61877;48.246;9.220;2022-10-16T08:07:39;8.77;;;3.70;;
73599;SDS011;61877;48.246;9.220;2022-10-16T08:10:05;7.63;;;3.50;;
73599;SDS011;61877;48.246;9.220;2022-10-16T08:12:31;8.13;;;3.55;;
73599;SDS011;61877;48.246;9.220;2022-10-16T08:17:53;7.78;;;3.17;;
73599;SDS011;61877;48.246;9.220;2022-10-16T08:20:26;7.22;;;2.70;;
73599;SDS011;61877;48.246;9.220;2022-10-16T08:22:54;7.10;;;2.80;;
73599;SDS011;61877;48.246;9.220;2022-10-16T08:57:09;7.03;;;2.40;;
73599;SDS011;61877;48.246;9.220;2022-10-16T08:59:38;6.82;;;2.33;;
73599;SDS011;61877;48.246;9.220;2022-10-16T09:02:08;7.53;;;2.27;;
73599;SDS011;61877;48.246;9.220;2022-10-16T09:04:52;6.43;;;2.42;;
73599;SDS011;61877;48.246;9.220;2022-10-16T09:07:25;7.85;;;2.63;;
73599;SDS011;61877;48.246;9.220;2022-10-16T09:10:04;8.93;;;2.50;;
73599;SDS011;61877;48.246;9.220;2022-10-16T09:12:43;6.57;;;2.75;;
73599;SDS011;61877;48.246;9.220;2022-10-16T09:15:16;8.60;;;2.90;;
73599;SDS011;61877;48.246;9.220;2022-10-16T09:18:12;7.80;;;2.58;;
73599;SDS011;61877;48.246;9.220;2022-10-16T09:20:49;7.82;;;2.50;;
73599;SDS011;61877;48.246;9.220;2022-10-16T09:23:18;8.00;;;3.80;;
73599;SDS011;61877;48.246;9.220;2022-10-16T09:25:54;7.38;;;3.40;;
73599;SDS011;61877;48.246;9.220;2022-10-16T09:28:34;7.80;;;3.30;;
73599;SDS011;61877;48.246;9.220;2022-10-16T09:38:46;6.88;;;2.50;;
73599;SDS011;61877;48.246;9.220;2022-10-16T09:41:16;7.00;;;2.57;;
73599;SDS011;61877;48.246;9.220;2022-10-16T09:43:48;6.38;;;2.65;;
73599;SDS011;61877;48.246;9.220;2022-10-16T09:46:27;7.05;;;2.40;;
73599;SDS011;61877;48.246;9.220;2022-10-16T09:48:55;6.88;;;2.15;;
73599;SDS011;61877;48.246;9.220;2022-10-16T09:51:24;7.05;;;2.28;;
73599;SDS011;61877;48.246;9.220;2022-10-16T09:53:54;8.90;;;2.60;;
73599;SDS011;61877;48.246;9.220;2022-10-16T09:56:22;6.80;;;2.70;;
73599;SDS011;61877;48.246;9.220;2022-10-16T09:58:53;6.97;;;2.22;;
73599;SDS011;61877;48.246;9.220;2022-10-16T10:01:21;9.68;;;2.70;;
73599;SDS011;61877;48.246;9.220;2022-10-16T10:03:49;6.45;;;2.45;;
73599;SDS011;61877;48.246;9.220;2022-10-16T10:06:20;8.13;;;3.10;;
73599;SDS011;61877;48.246;9.220;2022-10-16T10:08:59;6.53;;;2.78;;
73599;SDS011;61877;48.246;9.220;2022-10-16T10:14:14;8.35;;;3.22;;
73599;SDS011;61877;48.246;9.220;2022-10-16T10:16:43;7.40;;;2.70;;
73599;SDS011;61877;48.246;9.220;2022-10-16T10:19:12;6.10;;;2.20;;
73599;SDS011;61877;48.246;9.220;2022-10-16T10:21:39;7.53;;;2.58;;
73599;SDS011;61877;48.246;9.220;2022-10-16T10:24:05;6.17;;;2.40;;
73599;SDS011;61877;48.246;9.220;2022-10-16T10:26:34;6.43;;;2.47;;
73599;SDS011;61877;48.246;9.220;2022-10-16T10:29:00;5.77;;;2.03;;
73599;SDS011;61877;48.246;9.220;2022-10-16T10:31:38;7.00;;;2.67;;
73599;SDS011;61877;48.246;9.220;2022-10-16T10:34:17;6.50;;;2.60;;
73599;SDS011;61877;48.246;9.220;2022-10-16T10:37:02;6.35;;;2.30;;
73599;SDS011;61877;48.246;9.220;2022-10-16T10:39:36;7.05;;;2.55;;
73599;SDS011;61877;48.246;9.220;2022-10-16T10:42:14;8.13;;;2.80;;
73599;SDS011;61877;48.246;9.220;2022-10-16T10:44:55;8.27;;;2.80;;
73599;SDS011;61877;48.246;9.220;2022-10-16T10:50:24;7.10;;;2.63;;
73599;SDS011;61877;48.246;9.220;2022-10-16T10:53:03;7.43;;;2.55;;
73599;SDS011;61877;48.246;9.220;2022-10-16T10:55:43;6.72;;;2.58;;
73599;SDS011;61877;48.246;9.220;2022-10-16T10:58:19;8.77;;;2.70;;
73599;SDS011;61877;48.246;9.220;2022-10-16T11:01:18;8.43;;;2.70;;
73599;SDS011;61877;48.246;9.220;2022-10-16T11:06:59;9.55;;;2.50;;
73599;SDS011;61877;48.246;9.220;2022-10-16T11:09:30;6.70;;;2.30;;
73599;SDS011;61877;48.246;9.220;2022-10-16T11:12:02;7.20;;;2.20;;
73599;SDS011;61877;48.246;9.220;2022-10-16T11:14:38;7.35;;;2.25;;
73599;SDS011;61877;48.246;9.220;2022-10-16T11:17:12;7.55;;;2.28;;
73599;SDS011;61877;48.246;9.220;2022-10-16T11:19:41;7.40;;;1.95;;
73599;SDS011;61877;48.246;9.220;2022-10-16T11:22:14;7.38;;;2.33;;
73599;SDS011;61877;48.246;9.220;2022-10-16T11:24:51;6.60;;;1.87;;
73599;SDS011;61877;48.246;9.220;2022-10-16T11:30:18;6.90;;;2.20;;
73599;SDS011;61877;48.246;9.220;2022-10-16T11:33:10;6.18;;;2.28;;
73599;SDS011;61877;48.246;9.220;2022-10-16T11:35:48;6.28;;;1.80;;
73599;SDS011;61877;48.246;9.220;2022-10-16T11:38:25;6.50;;;1.90;;
73599;SDS011;61877;48.246;9.220;2022-10-16T11:41:03;7.55;;;2.25;;
73599;SDS011;61877;48.246;9.220;2022-10-16T11:43:40;6.97;;;2.40;;
73599;SDS011;61877;48.246;9.220;2022-10-16T11:46:08;6.10;;;2.30;;
73599;SDS011;61877;48.246;9.220;2022-10-16T11:48:39;7.65;;;2.13;;
73599;SDS011;61877;48.246;9.220;2022-10-16T11:54:07;7.22;;;2.45;;
73599;SDS011;61877;48.246;9.220;2022-10-16T11:56:43;6.95;;;2.10;;
73599;SDS011;61877;48.246;9.220;2022-10-16T11:59:13;5.70;;;2.20;;
73599;SDS011;61877;48.246;9.220;2022-10-16T12:01:46;7.80;;;2.40;;
73599;SDS011;61877;48.246;9.220;2022-10-16T12:04:17;7.43;;;2.60;;
73599;SDS011;61877;48.246;9.220;2022-10-16T12:06:51;7.43;;;2.60;;
73599;SDS011;61877;48.246;9.220;2022-10-16T12:09:24;6.63;;;2.40;;
73599;SDS011;61877;48.246;9.220;2022-10-16T12:11:51;8.23;;;2.58;;
73599;SDS011;61877;48.246;9.220;2022-10-16T12:14:18;6.77;;;2.50;;
73599;SDS011;61877;48.246;9.220;2022-10-16T12:19:56;7.78;;;2.78;;
73599;SDS011;61877;48.246;9.220;2022-10-16T12:22:23;6.88;;;2.60;;
73599;SDS011;61877;48.246;9.220;2022-10-16T12:24:50;6.33;;;2.43;;
73599;SDS011;61877;48.246;9.220;2022-10-16T12:27:21;6.28;;;2.50;;
73599;SDS011;61877;48.246;9.220;2022-10-16T12:29:54;6.70;;;2.40;;
73599;SDS011;61877;48.246;9.220;2022-10-16T12:32:25;5.90;;;2.63;;
73599;SDS011;61877;48.246;9.220;2022-10-16T12:34:54;7.55;;;2.63;;
73599;SDS011;61877;48.246;9.220;2022-10-16T12:37:21;5.67;;;2.57;;
73599;SDS011;61877;48.246;9.220;2022-10-16T12:39:50;6.30;;;2.50;;
73599;SDS011;61877;48.246;9.220;2022-10-16T12:42:22;5.95;;;2.40;;
73599;SDS011;61877;48.246;9.220;2022-10-16T12:44:55;9.13;;;2.92;;
73599;SDS011;61877;48.246;9.220;2022-10-16T12:47:22;6.80;;;2.50;;
73599;SDS011;61877;48.246;9.220;2022-10-16T12:49:49;6.68;;;2.30;;
73599;SDS011;61877;48.246;9.220;2022-10-16T12:52:26;6.65;;;2.30;;
73599;SDS011;61877;48.246;9.220;2022-10-16T12:54:57;5.93;;;2.30;;
73599;SDS011;61877;48.246;9.220;2022-10-16T12:57:27;6.07;;;2.27;;
73599;SDS011;61877;48.246;9.220;2022-10-16T13:00:07;6.88;;;2.38;;
73599;SDS011;61877;48.246;9.220;2022-10-16T13:02:48;5.60;;;2.20;;
73599;SDS011;61877;48.246;9.220;2022-10-16T13:05:32;7.03;;;2.38;;
73599;SDS011;61877;48.246;9.220;2022-10-16T13:08:06;6.03;;;2.40;;
73599;SDS011;61877;48.246;9.220;2022-10-16T13:10:51;7.13;;;2.13;;
73599;SDS011;61877;48.246;9.220;2022-10-16T13:13:30;6.22;;;2.20;;
73599;SDS011;61877;48.246;9.220;2022-10-16T13:16:08;6.35;;;2.40;;
73599;SDS011;61877;48.246;9.220;2022-10-16T13:18:44;7.70;;;2.50;;
73599;SDS011;61877;48.246;9.220;2022-10-16T13:21:22;5.93;;;2.50;;
73599;SDS011;61877;48.246;9.220;2022-10-16T13:23:57;5.30;;;2.13;;
73599;SDS011;61877;48.246;9.220;2022-10-16T13:26:35;6.03;;;2.17;;
73599;SDS011;61877;48.246;9.220;2022-10-16T13:29:09;7.40;;;2.35;;
73599;SDS011;61877;48.246;9.220;2022-10-16T13:31:36;5.70;;;2.17;;
73599;SDS011;61877;48.246;9.220;2022-10-16T13:34:04;5.63;;;2.20;;
73599;SDS011;61877;48.246;9.220;2022-10-16T13:36:42;6.07;;;2.40;;
73599;SDS011;61877;48.246;9.220;2022-10-16T13:39:11;6.22;;;2.15;;
73599;SDS011;61877;48.246;9.220;2022-10-16T13:41:40;6.80;;;2.30;;
73599;SDS011;61877;48.246;9.220;2022-10-16T13:44:08;6.77;;;2.10;;
73599;SDS011;61877;48.246;9.220;2022-10-16T13:46:39;7.22;;;2.22;;
73599;SDS011;61877;48.246;9.220;2022-10-16T13:49:05;5.43;;;2.43;;
73599;SDS011;61877;48.246;9.220;2022-10-16T13:51:37;6.25;;;2.38;;
73599;SDS011;61877;48.246;9.220;2022-10-16T13:54:03;6.47;;;2.15;;
73599;SDS011;61877;48.246;9.220;2022-10-16T13:56:29;8.03;;;2.40;;
73599;SDS011;61877;48.246;9.220;2022-10-16T13:59:02;6.85;;;2.00;;
73599;SDS011;61877;48.246;9.220;2022-10-16T14:01:30;5.60;;;1.80;;
73599;SDS011;61877;48.246;9.220;2022-10-16T14:04:00;6.30;;;2.00;;
73599;SDS011;61877;48.246;9.220;2022-10-16T14:06:28;6.00;;;1.98;;
73599;SDS011;61877;48.246;9.220;2022-10-16T14:08:57;5.40;;;2.00;;
73599;SDS011;61877;48.246;9.220;2022-10-16T14:11:26;7.83;;;2.00;;
73599;SDS011;61877;48.246;9.220;2022-10-16T14:13:52;7.15;;;2.13;;
73599;SDS011;61877;48.246;9.220;2022-10-16T14:16:21;6.07;;;2.10;;
73599;SDS011;61877;48.246;9.220;2022-10-16T14:18:50;6.30;;;2.20;;
73599;SDS011;61877;48.246;9.220;2022-10-16T14:21:21;6.47;;;2.20;;
73599;SDS011;61877;48.246;9.220;2022-10-16T14:23:47;5.28;;;2.00;;
73599;SDS011;61877;48.246;9.220;2022-10-16T14:26:16;5.57;;;2.20;;
73599;SDS011;61877;48.246;9.220;2022-10-16T14:28:44;6.10;;;2.42;;
73599;SDS011;61877;48.246;9.220;2022-10-16T14:31:25;7.65;;;2.40;;
73599;SDS011;61877;48.246;9.220;2022-10-16T14:33:52;7.47;;;2.93;;
73599;SDS011;61877;48.246;9.220;2022-10-16T14:36:18;10.38;;;5.05;;
73599;SDS011;61877;48.246;9.220;2022-10-16T14:38:48;7.97;;;2.70;;
73599;SDS011;61877;48.246;9.220;2022-10-16T14:41:23;7.60;;;2.95;;
73599;SDS011;61877;48.246;9.220;2022-10-16T14:43:49;5.93;;;2.20;;
73599;SDS011;61877;48.246;9.220;2022-10-16T14:46:18;7.97;;;2.25;;
73599;SDS011;61877;48.246;9.220;2022-10-16T14:48:47;9.65;;;2.28;;
73599;SDS011;61877;48.246;9.220;2022-10-16T14:51:15;5.30;;;2.10;;
73599;SDS011;61877;48.246;9.220;2022-10-16T14:53:41;6.50;;;2.40;;
73599;SDS011;61877;48.246;9.220;2022-10-16T14:56:07;5.27;;;2.10;;
73599;SDS011;61877;48.246;9.220;2022-10-16T14:58:40;7.93;;;2.10;;
73599;SDS011;61877;48.246;9.220;2022-10-16T15:01:07;6.10;;;2.23;;
73599;SDS011;61877;48.246;9.220;2022-10-16T15:03:33;9.02;;;1.92;;
73599;SDS011;61877;48.246;9.220;2022-10-16T15:06:00;9.53;;;2.17;;
73599;SDS011;61877;48.246;9.220;2022-10-16T15:08:25;6.38;;;2.00;;
73599;SDS011;61877;48.246;9.220;2022-10-16T15:10:51;5.93;;;1.50;;
73599;SDS011;61877;48.246;9.220;2022-10-16T15:13:16;5.75;;;1.90;;
73599;SDS011;61877;48.246;9.220;2022-10-16T15:15:42;6.07;;;1.90;;
73599;SDS011;61877;48.246;9.220;2022-10-16T15:18:09;6.90;;;2.00;;
73599;SDS011;61877;48.246;9.220;2022-10-16T15:20:35;7.00;;;1.90;;
73599;SDS011;61877;48.246;9.220;2022-10-16T15:23:04;6.07;;;1.85;;
73599;SDS011;61877;48.246;9.220;2022-10-16T15:25:34;8.52;;;1.58;;
73599;SDS011;61877;48.246;9.220;2022-10-16T15:28:02;7.22;;;2.00;;
73599;SDS011;61877;48.246;9.220;2022-10-16T15:30:28;9.55;;;2.38;;
73599;SDS011;61877;48.246;9.220;2022-10-16T15:32:54;7.87;;;1.87;;
73599;SDS011;61877;48.246;9.220;2022-10-16T15:35:19;5.90;;;2.13;;
73599;SDS011;61877;48.246;9.220;2022-10-16T15:37:45;8.38;;;1.90;;
73599;SDS011;61877;48.246;9.220;2022-10-16T15:40:13;6.88;;;1.77;;
73599;SDS011;61877;48.246;9.220;2022-10-16T15:42:39;7.57;;;2.00;;
73599;SDS011;61877;48.246;9.220;2022-10-16T15:45:04;7.03;;;1.90;;
73599;SDS011;61877;48.246;9.220;2022-10-16T15:47:31;8.15;;;2.05;;
73599;SDS011;61877;48.246;9.220;2022-10-16T15:49:56;7.03;;;2.03;;
73599;SDS011;61877;48.246;9.220;2022-10-16T15:52:22;8.00;;;2.10;;
73599;SDS011;61877;48.246;9.220;2022-10-16T15:54:47;12.10;;;2.43;;
73599;SDS011;61877;48.246;9.220;2022-10-16T15:57:14;5.63;;;1.90;;
73599;SDS011;61877;48.246;9.220;2022-10-16T15:59:40;6.25;;;2.20;;
73599;SDS011;61877;48.246;9.220;2022-10-16T16:02:07;8.53;;;2.27;;
73599;SDS011;61877;48.246;9.220;2022-10-16T16:04:33;6.00;;;2.10;;
73599;SDS011;61877;48.246;9.220;2022-10-16T16:06:58;8.00;;;2.03;;
73599;SDS011;61877;48.246;9.220;2022-10-16T16:09:23;9.57;;;2.40;;
73599;SDS011;61877;48.246;9.220;2022-10-16T16:11:51;7.60;;;1.93;;
73599;SDS011;61877;48.246;9.220;2022-10-16T16:14:17;8.50;;;2.40;;
73599;SDS011;61877;48.246;9.220;2022-10-16T16:16:43;7.30;;;2.20;;
73599;SDS011;61877;48.246;9.220;2022-10-16T16:19:08;8.17;;;2.17;;
73599;SDS011;61877;48.246;9.220;2022-10-16T16:21:34;10.75;;;2.40;;
73599;SDS011;61877;48.246;9.220;2022-10-16T16:24:00;7.23;;;2.20;;
73599;SDS011;61877;48.246;9.220;2022-10-16T16:26:26;9.53;;;2.50;;
73599;SDS011;61877;48.246;9.220;2022-10-16T16:28:52;10.50;;;2.17;;
73599;SDS011;61877;48.246;9.220;2022-10-16T16:31:23;8.48;;;3.10;;
73599;SDS011;61877;48.246;9.220;2022-10-16T16:33:52;7.28;;;2.78;;
73599;SDS011;61877;48.246;9.220;2022-10-16T16:36:17;9.25;;;3.70;;